createdAt,value
2019-02-18T00:00:07.074Z,7.06
2019-02-18T00:01:06.988Z,6.87
2019-02-18T00:02:06.931Z,6.56
2019-02-18T00:03:06.910Z,6.35
2019-02-18T00:04:06.822Z,6.12
2019-02-18T00:05:06.767Z,5.90
2019-02-18T00:06:06.712Z,5.80
2019-02-18T00:07:14.046Z,5.76
2019-02-18T00:08:06.637Z,5.80
2019-02-18T00:09:06.548Z,5.75
2019-02-18T00:10:06.516Z,5.80
2019-02-18T00:11:06.468Z,5.83
2019-02-18T00:12:06.384Z,5.98
2019-02-18T00:13:06.326Z,6.11
2019-02-18T00:14:06.269Z,6.35
2019-02-18T00:15:06.223Z,6.46
2019-02-18T00:16:06.195Z,6.49
2019-02-18T00:17:06.106Z,6.56
2019-02-18T00:18:06.051Z,6.48
2019-02-18T00:19:05.996Z,6.26
2019-02-18T00:20:05.971Z,6.28
2019-02-18T00:21:05.886Z,6.28
2019-02-18T00:22:05.833Z,6.20
2019-02-18T00:23:05.806Z,6.14
2019-02-18T00:24:05.750Z,6.12
2019-02-18T00:25:05.665Z,6.07
2019-02-18T00:26:05.610Z,6.01
2019-02-18T00:27:05.554Z,6.02
2019-02-18T00:28:05.496Z,6.14
2019-02-18T00:29:05.480Z,6.09
2019-02-18T00:30:05.388Z,6.04
2019-02-18T00:31:05.329Z,5.86
2019-02-18T00:32:05.276Z,5.83
2019-02-18T00:33:05.218Z,5.83
2019-02-18T00:34:05.198Z,5.94
2019-02-18T00:35:05.151Z,6.05
2019-02-18T00:36:05.055Z,6.05
2019-02-18T00:37:04.998Z,6.07
2019-02-18T00:38:04.943Z,6.04
2019-02-18T00:39:04.887Z,6.01
2019-02-18T00:40:04.864Z,6.17
2019-02-18T00:41:04.776Z,6.27
2019-02-18T00:42:04.718Z,6.51
2019-02-18T00:43:04.666Z,6.49
2019-02-18T00:44:04.610Z,6.52
2019-02-18T00:45:04.598Z,6.42
2019-02-18T00:46:04.532Z,6.30
2019-02-18T00:47:04.440Z,6.27
2019-02-18T00:48:04.459Z,6.27
2019-02-18T00:49:04.331Z,6.17
2019-02-18T00:50:04.276Z,6.24
2019-02-18T00:51:04.254Z,6.24
2019-02-18T00:52:04.163Z,6.17
2019-02-18T00:53:04.269Z,6.22
2019-02-18T00:54:04.055Z,6.16
2019-02-18T00:55:04.029Z,6.04
2019-02-18T00:56:03.942Z,6.02
2019-02-18T00:57:03.885Z,6.07
2019-02-18T00:58:03.875Z,5.94
2019-02-18T00:59:03.775Z,5.97
2019-02-18T01:00:03.721Z,5.82
2019-02-18T01:01:03.663Z,5.80
2019-02-18T01:02:03.611Z,5.82
2019-02-18T01:03:03.592Z,5.72
2019-02-18T01:04:03.502Z,5.76
2019-02-18T01:05:03.441Z,5.68
2019-02-18T01:06:03.386Z,5.64
2019-02-18T01:07:03.332Z,5.73
2019-02-18T01:08:03.312Z,5.76
2019-02-18T01:09:03.222Z,5.71
2019-02-18T01:10:03.166Z,5.56
2019-02-18T01:11:03.141Z,5.57
2019-02-18T01:12:03.050Z,5.47
2019-02-18T01:13:02.996Z,5.36
2019-02-18T01:14:02.980Z,5.41
2019-02-18T01:15:02.885Z,5.39
2019-02-18T01:16:02.830Z,5.43
2019-02-18T01:17:02.774Z,5.29
2019-02-18T01:18:02.792Z,5.26
2019-02-18T01:19:02.705Z,5.25
2019-02-18T01:20:02.611Z,5.26
2019-02-18T01:21:02.591Z,5.17
2019-02-18T01:22:02.495Z,5.14
2019-02-18T01:23:02.441Z,5.20
2019-02-18T01:24:02.415Z,5.12
2019-02-18T01:25:02.327Z,5.25
2019-02-18T01:26:02.277Z,5.18
2019-02-18T01:27:02.217Z,5.18
2019-02-18T01:28:02.158Z,5.08
2019-02-18T01:29:02.140Z,5.12
2019-02-18T01:30:02.049Z,5.02
2019-02-18T01:31:01.996Z,5.07
2019-02-18T01:32:01.942Z,4.92
2019-02-18T01:33:01.887Z,4.97
2019-02-18T01:34:01.866Z,4.96
2019-02-18T01:35:01.782Z,4.90
2019-02-18T01:36:01.713Z,4.94
2019-02-18T01:37:01.662Z,4.94
2019-02-18T01:38:01.600Z,5.00
2019-02-18T01:39:01.580Z,4.99
2019-02-18T01:40:01.490Z,4.89
2019-02-18T01:41:01.469Z,4.78
2019-02-18T01:42:01.381Z,4.56
2019-02-18T01:43:01.320Z,4.50
2019-02-18T01:44:01.263Z,4.40
2019-02-18T01:45:01.210Z,4.41
2019-02-18T01:46:01.176Z,4.44
2019-02-18T01:47:01.096Z,4.42
2019-02-18T01:48:01.044Z,4.44
2019-02-18T01:49:00.985Z,4.44
2019-02-18T01:50:00.945Z,4.49
2019-02-18T01:51:00.904Z,4.41
2019-02-18T01:52:00.820Z,4.38
2019-02-18T01:53:00.759Z,4.40
2019-02-18T01:54:00.735Z,4.31
2019-02-18T01:55:00.658Z,4.37
2019-02-18T01:56:00.589Z,4.41
2019-02-18T01:57:00.532Z,4.50
2019-02-18T01:58:00.509Z,4.68
2019-02-18T01:59:00.451Z,4.77
2019-02-18T02:00:00.365Z,4.75
2019-02-18T02:01:00.308Z,4.75
2019-02-18T02:02:00.274Z,4.56
2019-02-18T02:03:00.196Z,4.56
2019-02-18T02:04:00.171Z,4.41
2019-02-18T02:05:00.097Z,4.28
2019-02-18T02:06:00.058Z,4.19
2019-02-18T02:06:59.973Z,4.22
2019-02-18T02:07:59.943Z,4.26
2019-02-18T02:08:59.858Z,4.26
2019-02-18T02:09:59.802Z,4.26
2019-02-18T02:10:59.744Z,4.22
2019-02-18T02:11:59.719Z,4.26
2019-02-18T02:12:59.633Z,4.20
2019-02-18T02:13:59.607Z,4.19
2019-02-18T02:14:59.517Z,4.17
2019-02-18T02:15:59.461Z,4.26
2019-02-18T02:16:59.401Z,4.24
2019-02-18T02:17:59.378Z,4.23
2019-02-18T02:18:59.297Z,4.19
2019-02-18T02:19:59.236Z,4.30
2019-02-18T02:20:59.177Z,4.28
2019-02-18T02:21:59.120Z,4.22
2019-02-18T02:22:59.098Z,4.37
2019-02-18T02:23:59.007Z,4.37
2019-02-18T02:24:58.948Z,4.35
2019-02-18T02:25:58.893Z,4.45
2019-02-18T02:26:58.837Z,4.52
2019-02-18T02:27:58.809Z,4.55
2019-02-18T02:28:58.721Z,4.50
2019-02-18T02:29:58.666Z,4.58
2019-02-18T02:31:00.813Z,4.55
2019-02-18T02:31:58.698Z,4.55
2019-02-18T02:32:58.524Z,4.60
2019-02-18T02:33:58.441Z,4.53
2019-02-18T02:34:58.386Z,4.49
2019-02-18T02:35:58.357Z,4.68
2019-02-18T02:36:58.268Z,4.89
2019-02-18T02:38:07.311Z,4.97
2019-02-18T02:38:58.195Z,5.04
2019-02-18T02:39:58.107Z,5.08
2019-02-18T02:40:58.042Z,4.99
2019-02-18T02:41:57.984Z,4.99
2019-02-18T02:42:57.929Z,4.94
2019-02-18T02:43:57.905Z,5.02
2019-02-18T02:44:57.815Z,5.07
2019-02-18T02:45:57.758Z,5.18
2019-02-18T02:46:57.705Z,5.30
2019-02-18T02:47:57.686Z,5.38
2019-02-18T02:48:57.591Z,5.41
2019-02-18T02:49:57.538Z,5.48
2019-02-18T02:50:57.481Z,5.44
2019-02-18T02:51:57.452Z,5.29
2019-02-18T02:52:57.394Z,5.28
2019-02-18T02:53:57.305Z,5.14
2019-02-18T02:54:57.249Z,4.99
2019-02-18T02:55:57.191Z,4.94
2019-02-18T02:56:57.135Z,4.84
2019-02-18T02:57:57.111Z,4.89
2019-02-18T02:58:57.021Z,4.92
2019-02-18T02:59:56.964Z,4.84
2019-02-18T03:00:56.943Z,5.00
2019-02-18T03:01:56.852Z,4.92
2019-02-18T03:02:56.794Z,4.94
2019-02-18T03:03:56.743Z,4.99
2019-02-18T03:04:56.687Z,4.87
2019-02-18T03:05:56.661Z,4.71
2019-02-18T03:06:56.569Z,4.70
2019-02-18T03:07:56.543Z,4.62
2019-02-18T03:08:56.456Z,4.53
2019-02-18T03:09:56.399Z,4.42
2019-02-18T03:10:56.344Z,4.37
2019-02-18T03:11:56.291Z,4.23
2019-02-18T03:12:56.269Z,4.16
2019-02-18T03:13:56.175Z,4.04
2019-02-18T03:14:56.121Z,3.95
2019-02-18T03:15:56.058Z,3.92
2019-02-18T03:16:56.012Z,3.91
2019-02-18T03:17:55.985Z,3.88
2019-02-18T03:18:55.936Z,3.84
2019-02-18T03:19:55.832Z,3.76
2019-02-18T03:20:55.774Z,3.86
2019-02-18T03:21:55.726Z,3.83
2019-02-18T03:22:55.664Z,3.69
2019-02-18T03:23:55.641Z,3.70
2019-02-18T03:24:55.551Z,3.80
2019-02-18T03:25:55.491Z,3.76
2019-02-18T03:26:55.470Z,3.76
2019-02-18T03:27:55.379Z,3.80
2019-02-18T03:28:55.320Z,3.83
2019-02-18T03:29:55.262Z,3.83
2019-02-18T03:30:55.247Z,3.81
2019-02-18T03:31:55.150Z,3.80
2019-02-18T03:32:55.095Z,3.69
2019-02-18T03:33:55.063Z,3.74
2019-02-18T03:34:55.008Z,3.62
2019-02-18T03:35:54.922Z,3.63
2019-02-18T03:36:54.892Z,3.62
2019-02-18T03:37:54.804Z,3.69
2019-02-18T03:38:54.749Z,3.65
2019-02-18T03:39:54.753Z,3.65
2019-02-18T03:41:02.838Z,3.69
2019-02-18T03:41:54.577Z,3.65
2019-02-18T03:42:54.522Z,3.62
2019-02-18T03:43:54.494Z,3.60
2019-02-18T03:44:54.408Z,3.68
2019-02-18T03:45:54.349Z,3.66
2019-02-18T03:46:54.326Z,3.59
2019-02-18T03:47:54.234Z,3.58
2019-02-18T03:48:54.179Z,3.65
2019-02-18T03:49:54.119Z,3.74
2019-02-18T03:50:54.064Z,3.83
2019-02-18T03:51:54.058Z,3.80
2019-02-18T03:52:53.953Z,3.84
2019-02-18T03:53:53.899Z,3.88
2019-02-18T03:54:53.838Z,3.94
2019-02-18T03:55:53.781Z,3.94
2019-02-18T03:56:53.755Z,3.98
2019-02-18T03:57:53.664Z,3.91
2019-02-18T03:58:53.607Z,3.96
2019-02-18T03:59:53.553Z,4.06
2019-02-18T04:00:53.491Z,4.10
2019-02-18T04:01:53.474Z,4.10
2019-02-18T04:02:53.380Z,4.06
2019-02-18T04:03:53.319Z,4.13
2019-02-18T04:04:53.268Z,4.16
2019-02-18T04:05:53.251Z,4.06
2019-02-18T04:06:53.192Z,4.06
2019-02-18T04:07:53.096Z,4.08
2019-02-18T04:08:53.055Z,4.12
2019-02-18T04:09:53.009Z,4.16
2019-02-18T04:10:52.924Z,4.10
2019-02-18T04:11:52.896Z,4.06
2019-02-18T04:12:52.813Z,3.87
2019-02-18T04:13:52.758Z,3.81
2019-02-18T04:14:52.729Z,3.83
2019-02-18T04:15:52.638Z,3.83
2019-02-18T04:16:52.579Z,3.81
2019-02-18T04:17:52.522Z,3.81
2019-02-18T04:18:52.496Z,3.81
2019-02-18T04:19:52.443Z,3.83
2019-02-18T04:20:52.356Z,3.84
2019-02-18T04:21:52.295Z,3.86
2019-02-18T04:22:52.238Z,3.83
2019-02-18T04:23:52.212Z,3.84
2019-02-18T04:24:52.125Z,3.81
2019-02-18T04:25:52.065Z,3.80
2019-02-18T04:26:52.008Z,3.76
2019-02-18T04:27:52.001Z,3.74
2019-02-18T04:28:51.918Z,3.73
2019-02-18T04:29:51.836Z,3.92
2019-02-18T04:30:51.780Z,3.96
2019-02-18T04:31:51.761Z,4.10
2019-02-18T04:32:51.665Z,4.08
2019-02-18T04:33:51.607Z,4.19
2019-02-18T04:34:51.571Z,4.19
2019-02-18T04:35:51.500Z,4.14
2019-02-18T04:36:51.471Z,4.31
2019-02-18T04:37:51.411Z,4.31
2019-02-18T04:38:54.001Z,4.31
2019-02-18T04:39:51.263Z,4.44
2019-02-18T04:40:51.212Z,4.38
2019-02-18T04:41:51.151Z,4.37
2019-02-18T04:42:51.127Z,4.40
2019-02-18T04:43:51.070Z,4.14
2019-02-18T04:44:50.982Z,4.06
2019-02-18T04:45:50.924Z,4.10
2019-02-18T04:46:50.868Z,3.96
2019-02-18T04:47:50.841Z,3.95
2019-02-18T04:48:50.765Z,3.86
2019-02-18T04:49:50.695Z,3.87
2019-02-18T04:50:50.638Z,3.87
2019-02-18T04:51:50.579Z,3.83
2019-02-18T04:52:50.555Z,3.74
2019-02-18T04:53:50.471Z,3.76
2019-02-18T04:54:50.409Z,3.76
2019-02-18T04:55:50.351Z,3.83
2019-02-18T04:56:50.302Z,3.83
2019-02-18T04:57:50.265Z,3.83
2019-02-18T04:58:50.181Z,3.87
2019-02-18T04:59:50.124Z,3.94
2019-02-18T05:00:50.064Z,4.02
2019-02-18T05:01:50.050Z,4.01
2019-02-18T05:02:49.973Z,4.01
2019-02-18T05:03:49.894Z,3.94
2019-02-18T05:04:49.844Z,3.91
2019-02-18T05:05:49.815Z,3.77
2019-02-18T05:06:49.725Z,3.69
2019-02-18T05:07:49.669Z,3.65
2019-02-18T05:08:49.616Z,3.59
2019-02-18T05:09:49.553Z,3.62
2019-02-18T05:10:49.619Z,3.63
2019-02-18T05:11:49.443Z,3.74
2019-02-18T05:12:49.379Z,3.87
2019-02-18T05:13:49.320Z,3.94
2019-02-18T05:14:49.264Z,3.96
2019-02-18T05:15:49.239Z,4.14
2019-02-18T05:16:49.176Z,4.06
2019-02-18T05:17:49.096Z,4.14
2019-02-18T05:18:49.040Z,4.14
2019-02-18T05:19:48.988Z,3.94
2019-02-18T05:20:48.960Z,3.96
2019-02-18T05:21:48.896Z,4.02
2019-02-18T05:22:48.810Z,3.94
2019-02-18T05:23:48.747Z,3.91
2019-02-18T05:24:48.690Z,3.86
2019-02-18T05:25:48.631Z,3.87
2019-02-18T05:26:48.607Z,3.83
2019-02-18T05:27:48.519Z,3.80
2019-02-18T05:28:48.466Z,3.84
2019-02-18T05:29:48.405Z,3.81
2019-02-18T05:30:48.351Z,3.84
2019-02-18T05:31:48.321Z,3.83
2019-02-18T05:32:48.255Z,3.81
2019-02-18T05:33:48.176Z,3.92
2019-02-18T05:34:48.126Z,3.92
2019-02-18T05:35:48.060Z,3.87
2019-02-18T05:36:48.009Z,3.98
2019-02-18T05:37:47.984Z,3.83
2019-02-18T05:38:47.889Z,3.74
2019-02-18T05:39:47.830Z,3.62
2019-02-18T05:40:47.773Z,3.59
2019-02-18T05:41:47.719Z,3.62
2019-02-18T05:42:47.688Z,3.37
2019-02-18T05:43:47.600Z,3.31
2019-02-18T05:44:47.582Z,3.23
2019-02-18T05:45:47.487Z,3.14
2019-02-18T05:46:47.442Z,3.14
2019-02-18T05:47:47.371Z,3.11
2019-02-18T05:48:47.314Z,3.14
2019-02-18T05:49:47.286Z,3.26
2019-02-18T05:50:47.199Z,3.34
2019-02-18T05:51:47.146Z,3.32
2019-02-18T05:52:47.087Z,3.28
2019-02-18T05:53:47.028Z,3.42
2019-02-18T05:54:47.000Z,3.55
2019-02-18T05:55:46.910Z,3.48
2019-02-18T05:56:46.929Z,3.60
2019-02-18T05:57:46.799Z,3.60
2019-02-18T05:58:46.739Z,3.63
2019-02-18T05:59:46.686Z,3.59
2019-02-18T06:00:46.624Z,3.76
2019-02-18T06:01:46.601Z,3.88
2019-02-18T06:02:46.510Z,3.92
2019-02-18T06:03:46.451Z,3.95
2019-02-18T06:04:46.434Z,4.06
2019-02-18T06:05:46.342Z,4.19
2019-02-18T06:06:46.280Z,4.14
2019-02-18T06:07:46.222Z,4.26
2019-02-18T06:08:46.170Z,4.20
2019-02-18T06:09:46.149Z,4.26
2019-02-18T06:10:46.050Z,4.22
2019-02-18T06:11:45.991Z,4.20
2019-02-18T06:12:45.932Z,4.08
2019-02-18T06:13:45.878Z,4.01
2019-02-18T06:14:45.851Z,3.86
2019-02-18T06:15:45.767Z,3.70
2019-02-18T06:16:45.703Z,3.80
2019-02-18T06:17:45.646Z,3.65
2019-02-18T06:18:45.588Z,3.68
2019-02-18T06:19:45.570Z,3.60
2019-02-18T06:20:45.474Z,3.59
2019-02-18T06:21:45.415Z,3.44
2019-02-18T06:22:45.358Z,3.55
2019-02-18T06:23:45.303Z,3.44
2019-02-18T06:24:45.275Z,3.47
2019-02-18T06:25:45.223Z,3.44
2019-02-18T06:26:45.128Z,3.58
2019-02-18T06:27:45.070Z,3.65
2019-02-18T06:28:45.013Z,3.65
2019-02-18T06:29:45.000Z,3.63
2019-02-18T06:30:44.900Z,3.63
2019-02-18T06:31:44.840Z,3.50
2019-02-18T06:32:44.781Z,3.58
2019-02-18T06:33:44.725Z,3.44
2019-02-18T06:34:44.748Z,3.53
2019-02-18T06:35:44.610Z,3.48
2019-02-18T06:36:44.553Z,3.34
2019-02-18T06:37:44.499Z,3.28
2019-02-18T06:38:44.440Z,3.32
2019-02-18T06:39:44.448Z,3.32
2019-02-18T06:40:44.321Z,3.19
2019-02-18T06:41:44.269Z,3.10
2019-02-18T06:42:44.205Z,3.14
2019-02-18T06:43:44.152Z,3.14
2019-02-18T06:44:44.127Z,3.14
2019-02-18T06:45:44.032Z,3.14
2019-02-18T06:46:43.972Z,3.14
2019-02-18T06:47:43.953Z,3.00
2019-02-18T06:48:43.857Z,3.08
2019-02-18T06:49:43.803Z,3.05
2019-02-18T06:50:43.775Z,3.01
2019-02-18T06:51:43.685Z,3.07
2019-02-18T06:52:43.628Z,3.04
2019-02-18T06:53:43.572Z,3.08
2019-02-18T06:54:43.543Z,3.11
2019-02-18T06:55:43.454Z,3.11
2019-02-18T06:56:43.395Z,3.08
2019-02-18T06:57:43.341Z,3.13
2019-02-18T06:58:43.286Z,3.11
2019-02-18T06:59:43.273Z,3.08
2019-02-18T07:00:43.164Z,3.13
2019-02-18T07:01:43.110Z,3.18
2019-02-18T07:02:43.052Z,3.19
2019-02-18T07:03:42.994Z,3.22
2019-02-18T07:04:42.978Z,3.21
2019-02-18T07:05:42.877Z,3.41
2019-02-18T07:06:42.817Z,3.62
2019-02-18T07:07:42.760Z,4.14
2019-02-18T07:08:42.724Z,4.70
2019-02-18T07:09:50.717Z,5.21
2019-02-18T07:10:42.590Z,5.66
2019-02-18T07:11:42.573Z,5.84
2019-02-18T07:12:42.510Z,6.17
2019-02-18T07:13:42.433Z,6.57
2019-02-18T07:14:42.367Z,7.11
2019-02-18T07:15:42.310Z,7.56
2019-02-18T07:16:42.255Z,7.90
2019-02-18T07:17:42.235Z,8.20
2019-02-18T07:18:42.183Z,8.63
2019-02-18T07:19:42.124Z,8.89
2019-02-18T07:20:42.045Z,9.41
2019-02-18T07:21:41.989Z,9.59
2019-02-18T07:22:41.939Z,9.82
2019-02-18T07:23:41.890Z,9.74
2019-02-18T07:24:41.881Z,9.87
2019-02-18T07:25:41.788Z,10.04
2019-02-18T07:26:41.738Z,10.53
2019-02-18T07:27:41.690Z,10.89
2019-02-18T07:28:41.640Z,11.45
2019-02-18T07:29:41.624Z,11.84
2019-02-18T07:30:41.582Z,12.04
2019-02-18T07:31:41.497Z,11.91
2019-02-18T07:32:42.157Z,11.72
2019-02-18T07:33:41.408Z,11.68
2019-02-18T07:34:41.394Z,11.50
2019-02-18T07:35:41.319Z,11.29
2019-02-18T07:36:41.265Z,11.30
2019-02-18T07:37:41.224Z,11.72
2019-02-18T07:38:41.182Z,12.20
2019-02-18T07:39:41.165Z,12.36
2019-02-18T07:40:41.088Z,12.65
2019-02-18T07:41:41.045Z,13.20
2019-02-18T07:42:41.039Z,13.44
2019-02-18T07:43:40.958Z,13.44
2019-02-18T07:44:40.919Z,13.74
2019-02-18T07:45:40.907Z,14.10
2019-02-18T07:46:40.871Z,14.30
2019-02-18T07:47:40.795Z,14.66
2019-02-18T07:48:40.746Z,14.81
2019-02-18T07:49:40.706Z,15.03
2019-02-18T07:50:40.667Z,15.07
2019-02-18T07:51:40.657Z,15.47
2019-02-18T07:52:40.583Z,15.61
2019-02-18T07:53:40.547Z,15.62
2019-02-18T07:54:40.508Z,15.64
2019-02-18T07:55:40.497Z,15.51
2019-02-18T07:56:40.424Z,15.35
2019-02-18T07:57:40.392Z,15.36
2019-02-18T07:58:40.348Z,15.44
2019-02-18T07:59:42.739Z,14.99
2019-02-18T08:00:40.332Z,14.79
2019-02-18T08:01:40.235Z,14.72
2019-02-18T08:02:40.198Z,14.82
2019-02-18T08:03:40.157Z,14.96
2019-02-18T08:04:40.125Z,15.40
2019-02-18T08:05:40.114Z,15.83
2019-02-18T08:06:40.044Z,16.29
2019-02-18T08:07:40.005Z,16.57
2019-02-18T08:08:39.967Z,16.69
2019-02-18T08:09:39.930Z,16.65
2019-02-18T08:10:39.927Z,16.61
2019-02-18T08:11:39.865Z,16.86
2019-02-18T08:12:39.820Z,17.14
2019-02-18T08:13:39.779Z,17.38
2019-02-18T08:14:39.746Z,17.45
2019-02-18T08:15:39.744Z,17.11
2019-02-18T08:16:39.703Z,17.57
2019-02-18T08:17:39.639Z,18.00
2019-02-18T08:18:39.609Z,18.34
2019-02-18T08:19:39.631Z,18.50
2019-02-18T08:20:39.530Z,18.37
2019-02-18T08:21:39.538Z,18.45
2019-02-18T08:22:39.458Z,18.50
2019-02-18T08:23:39.429Z,18.77
2019-02-18T08:24:39.386Z,18.77
2019-02-18T08:25:39.351Z,18.74
2019-02-18T08:26:39.348Z,18.31
2019-02-18T08:27:39.280Z,18.35
2019-02-18T08:28:39.280Z,18.43
2019-02-18T08:29:39.211Z,18.80
2019-02-18T08:30:39.181Z,18.86
2019-02-18T08:31:39.142Z,19.07
2019-02-18T08:32:39.108Z,19.45
2019-02-18T08:33:39.114Z,19.63
2019-02-18T08:34:39.039Z,19.69
2019-02-18T08:35:39.006Z,19.26
2019-02-18T08:36:38.973Z,18.68
2019-02-18T08:37:38.972Z,18.34
2019-02-18T08:38:38.939Z,18.07
2019-02-18T08:39:38.871Z,18.28
2019-02-18T08:40:38.839Z,18.63
2019-02-18T08:41:38.801Z,19.52
2019-02-18T08:42:38.816Z,20.13
2019-02-18T08:43:38.731Z,20.21
2019-02-18T08:44:38.697Z,20.18
2019-02-18T08:45:38.663Z,20.36
2019-02-18T08:46:38.631Z,20.52
2019-02-18T08:47:38.636Z,20.63
2019-02-18T08:48:38.563Z,20.72
2019-02-18T08:49:38.531Z,20.41
2019-02-18T08:50:38.497Z,20.22
2019-02-18T08:51:38.459Z,19.88
2019-02-18T08:52:38.459Z,19.88
2019-02-18T08:53:38.398Z,19.99
2019-02-18T08:54:38.366Z,20.02
2019-02-18T08:55:38.365Z,19.59
2019-02-18T08:56:38.296Z,19.82
2019-02-18T08:57:38.261Z,20.03
2019-02-18T08:58:38.270Z,20.19
2019-02-18T08:59:38.193Z,20.25
2019-02-18T09:00:38.160Z,20.72
2019-02-18T09:01:38.127Z,20.85
2019-02-18T09:02:38.099Z,21.06
2019-02-18T09:03:38.092Z,20.70
2019-02-18T09:04:38.029Z,20.84
2019-02-18T09:05:37.997Z,21.00
2019-02-18T09:06:38.001Z,21.20
2019-02-18T09:07:37.939Z,21.11
2019-02-18T09:08:37.900Z,21.18
2019-02-18T09:09:37.860Z,21.43
2019-02-18T09:10:37.830Z,21.60
2019-02-18T09:11:37.837Z,21.98
2019-02-18T09:12:37.764Z,22.11
2019-02-18T09:13:37.730Z,22.41
2019-02-18T09:14:37.698Z,22.51
2019-02-18T09:15:37.664Z,22.62
2019-02-18T09:16:37.667Z,22.84
2019-02-18T09:17:37.601Z,22.99
2019-02-18T09:18:37.593Z,22.84
2019-02-18T09:19:37.534Z,22.98
2019-02-18T09:20:37.502Z,22.38
2019-02-18T09:21:37.471Z,22.22
2019-02-18T09:22:37.437Z,21.73
2019-02-18T09:23:37.464Z,21.48
2019-02-18T09:24:37.372Z,21.57
2019-02-18T09:25:37.337Z,21.57
2019-02-18T09:26:37.307Z,21.39
2019-02-18T09:27:37.272Z,21.35
2019-02-18T09:28:37.262Z,21.83
2019-02-18T09:29:37.209Z,22.04
2019-02-18T09:30:37.177Z,22.26
2019-02-18T09:31:37.143Z,22.51
2019-02-18T09:32:37.107Z,22.48
2019-02-18T09:33:37.104Z,22.72
2019-02-18T09:34:37.042Z,22.55
2019-02-18T09:35:37.013Z,22.29
2019-02-18T09:36:36.974Z,22.26
2019-02-18T09:37:36.942Z,22.78
2019-02-18T09:38:36.940Z,22.99
2019-02-18T09:39:36.876Z,22.28
2019-02-18T09:40:44.261Z,21.15
2019-02-18T09:41:36.810Z,20.34
2019-02-18T09:42:36.779Z,20.18
2019-02-18T09:43:36.774Z,20.39
2019-02-18T09:44:36.793Z,20.32
2019-02-18T09:45:36.676Z,20.58
2019-02-18T09:46:36.643Z,21.00
2019-02-18T09:47:36.606Z,21.42
2019-02-18T09:48:36.616Z,21.51
2019-02-18T09:49:36.538Z,21.67
2019-02-18T09:50:36.520Z,20.97
2019-02-18T09:51:36.476Z,20.67
2019-02-18T09:52:36.439Z,20.25
2019-02-18T09:53:36.439Z,20.26
2019-02-18T09:54:36.374Z,20.39
2019-02-18T09:55:36.337Z,20.66
2019-02-18T09:56:36.989Z,20.75
2019-02-18T09:57:36.269Z,21.05
2019-02-18T09:58:36.265Z,21.48
2019-02-18T09:59:36.198Z,22.04
2019-02-18T10:00:36.166Z,22.47
2019-02-18T10:01:36.128Z,22.69
2019-02-18T10:02:36.093Z,23.05
2019-02-18T10:03:36.092Z,23.36
2019-02-18T10:04:36.055Z,23.59
2019-02-18T10:05:35.990Z,23.80
2019-02-18T10:06:35.953Z,23.66
2019-02-18T10:07:35.949Z,23.88
2019-02-18T10:08:35.884Z,23.56
2019-02-18T10:09:35.854Z,23.74
2019-02-18T10:10:35.813Z,23.77
2019-02-18T10:11:35.777Z,23.46
2019-02-18T10:12:35.776Z,22.93
2019-02-18T10:13:35.738Z,21.99
2019-02-18T10:14:35.675Z,22.14
2019-02-18T10:15:35.643Z,22.41
2019-02-18T10:16:35.598Z,22.53
2019-02-18T10:17:35.569Z,22.94
2019-02-18T10:18:35.562Z,22.72
2019-02-18T10:19:35.491Z,22.96
2019-02-18T10:20:35.457Z,22.65
2019-02-18T10:21:35.417Z,22.87
2019-02-18T10:22:35.382Z,22.80
2019-02-18T10:23:35.375Z,22.85
2019-02-18T10:24:35.347Z,22.11
2019-02-18T10:25:35.276Z,21.69
2019-02-18T10:26:35.236Z,20.93
2019-02-18T10:27:35.199Z,20.04
2019-02-18T10:28:35.158Z,20.22
2019-02-18T10:29:35.155Z,20.26
2019-02-18T10:30:35.084Z,20.14
2019-02-18T10:31:35.044Z,19.99
2019-02-18T10:32:35.041Z,20.32
2019-02-18T10:33:34.972Z,20.58
2019-02-18T10:34:34.931Z,21.32
2019-02-18T10:35:34.926Z,21.54
2019-02-18T10:36:34.857Z,21.66
2019-02-18T10:37:34.819Z,21.79
2019-02-18T10:38:34.775Z,21.69
2019-02-18T10:39:34.738Z,21.50
2019-02-18T10:40:34.731Z,21.64
2019-02-18T10:41:34.673Z,22.26
2019-02-18T10:42:34.620Z,21.95
2019-02-18T10:43:34.579Z,21.39
2019-02-18T10:44:34.563Z,20.80
2019-02-18T10:45:34.533Z,21.22
2019-02-18T10:46:34.463Z,21.24
2019-02-18T10:47:34.424Z,21.03
2019-02-18T10:48:34.382Z,19.89
2019-02-18T10:49:34.341Z,19.86
2019-02-18T10:50:34.333Z,20.11
2019-02-18T10:51:34.294Z,20.07
2019-02-18T10:52:34.221Z,19.81
2019-02-18T10:53:34.183Z,19.94
2019-02-18T10:54:34.142Z,19.99
2019-02-18T10:55:34.101Z,20.48
2019-02-18T10:56:34.092Z,20.88
2019-02-18T10:57:34.019Z,21.09
2019-02-18T10:58:33.975Z,21.06
2019-02-18T10:59:33.936Z,21.17
2019-02-18T11:00:33.895Z,21.05
2019-02-18T11:01:33.886Z,21.05
2019-02-18T11:02:33.810Z,21.12
2019-02-18T11:03:33.771Z,20.40
2019-02-18T11:04:33.729Z,20.43
2019-02-18T11:05:33.690Z,20.32
2019-02-18T11:06:33.678Z,20.26
2019-02-18T11:07:33.606Z,20.00
2019-02-18T11:08:33.564Z,19.62
2019-02-18T11:09:33.521Z,19.62
2019-02-18T11:10:33.481Z,19.66
2019-02-18T11:11:33.471Z,19.94
2019-02-18T11:12:33.396Z,19.74
2019-02-18T11:13:33.360Z,19.71
2019-02-18T11:14:33.351Z,19.73
2019-02-18T11:15:33.273Z,19.84
2019-02-18T11:16:33.252Z,19.82
2019-02-18T11:17:38.946Z,19.76
2019-02-18T11:18:33.177Z,20.03
2019-02-18T11:19:33.103Z,19.82
2019-02-18T11:20:33.060Z,19.00
2019-02-18T11:21:33.048Z,18.59
2019-02-18T11:22:32.977Z,18.29
2019-02-18T11:23:32.944Z,18.22
2019-02-18T11:24:32.892Z,17.95
2019-02-18T11:25:32.880Z,17.56
2019-02-18T11:26:32.812Z,17.46
2019-02-18T11:27:32.761Z,17.59
2019-02-18T11:28:32.719Z,17.90
2019-02-18T11:29:32.677Z,18.08
2019-02-18T11:30:32.668Z,18.43
2019-02-18T11:31:32.591Z,18.83
2019-02-18T11:32:32.550Z,18.98
2019-02-18T11:33:32.507Z,18.89
2019-02-18T11:34:32.495Z,18.55
2019-02-18T11:35:32.418Z,18.29
2019-02-18T11:36:32.379Z,18.40
2019-02-18T11:37:32.333Z,18.62
2019-02-18T11:38:32.289Z,18.75
2019-02-18T11:39:32.288Z,18.59
2019-02-18T11:40:32.337Z,18.77
2019-02-18T11:41:32.161Z,18.84
2019-02-18T11:42:32.118Z,18.86
2019-02-18T11:43:32.076Z,18.78
2019-02-18T11:44:32.107Z,18.65
2019-02-18T11:45:31.993Z,18.71
2019-02-18T11:46:31.945Z,18.62
2019-02-18T11:47:31.901Z,18.89
2019-02-18T11:48:31.859Z,18.88
2019-02-18T11:49:31.848Z,18.60
2019-02-18T11:50:31.773Z,18.58
2019-02-18T11:51:31.769Z,18.49
2019-02-18T11:52:31.684Z,18.50
2019-02-18T11:53:31.642Z,18.50
2019-02-18T11:54:31.599Z,18.77
2019-02-18T11:55:31.557Z,18.86
2019-02-18T11:56:31.543Z,19.22
2019-02-18T11:57:31.739Z,19.33
2019-02-18T11:58:31.425Z,19.24
2019-02-18T11:59:31.381Z,19.29
2019-02-18T12:00:31.341Z,19.22
2019-02-18T12:01:31.296Z,19.47
2019-02-18T12:02:31.294Z,19.52
2019-02-18T12:03:31.209Z,19.45
2019-02-18T12:04:31.165Z,19.34
2019-02-18T12:05:31.121Z,18.96
2019-02-18T12:06:31.079Z,18.63
2019-02-18T12:07:31.073Z,18.40
2019-02-18T12:08:31.022Z,18.47
2019-02-18T12:09:30.947Z,18.43
2019-02-18T12:10:30.904Z,18.41
2019-02-18T12:11:38.024Z,18.47
2019-02-18T12:12:30.831Z,18.80
2019-02-18T12:13:30.814Z,18.93
2019-02-18T12:14:30.747Z,18.81
2019-02-18T12:15:30.683Z,18.66
2019-02-18T12:16:30.641Z,18.47
2019-02-18T12:17:30.599Z,18.56
2019-02-18T12:18:30.595Z,18.18
2019-02-18T12:19:30.509Z,18.37
2019-02-18T12:20:30.468Z,18.50
2019-02-18T12:21:30.424Z,18.63
2019-02-18T12:22:30.389Z,18.58
2019-02-18T12:23:30.366Z,18.83
2019-02-18T12:24:30.322Z,18.89
2019-02-18T12:25:30.250Z,18.90
2019-02-18T12:26:30.206Z,18.96
2019-02-18T12:27:32.114Z,19.29
2019-02-18T12:28:30.118Z,19.44
2019-02-18T12:29:30.112Z,19.45
2019-02-18T12:30:32.269Z,19.26
2019-02-18T12:31:29.983Z,19.27
2019-02-18T12:32:29.941Z,19.37
2019-02-18T12:33:29.897Z,19.41
2019-02-18T12:34:29.895Z,19.55
2019-02-18T12:35:32.150Z,19.49
2019-02-18T12:36:29.766Z,19.02
2019-02-18T12:37:30.178Z,18.93
2019-02-18T12:38:29.679Z,18.99
2019-02-18T12:39:29.667Z,18.98
2019-02-18T12:40:29.625Z,18.92
2019-02-18T12:41:29.544Z,18.78
2019-02-18T12:42:29.506Z,18.63
2019-02-18T12:43:29.513Z,18.50
2019-02-18T12:44:29.415Z,18.65
2019-02-18T12:45:29.412Z,18.74
2019-02-18T12:46:29.328Z,18.77
2019-02-18T12:47:29.286Z,18.70
2019-02-18T12:48:29.242Z,18.84
2019-02-18T12:49:29.200Z,19.00
2019-02-18T12:50:29.195Z,18.95
2019-02-18T12:51:29.174Z,18.62
2019-02-18T12:52:29.064Z,18.74
2019-02-18T12:53:29.023Z,18.89
2019-02-18T12:54:28.978Z,18.73
2019-02-18T12:55:29.232Z,18.96
2019-02-18T12:56:28.892Z,18.77
2019-02-18T12:57:28.846Z,18.74
2019-02-18T12:58:28.804Z,18.56
2019-02-18T12:59:29.006Z,18.35
2019-02-18T13:00:28.753Z,18.31
2019-02-18T13:01:28.668Z,18.47
2019-02-18T13:02:28.628Z,18.62
2019-02-18T13:03:28.581Z,18.73
2019-02-18T13:04:28.537Z,18.96
2019-02-18T13:05:28.526Z,18.90
2019-02-18T13:06:28.482Z,18.95